Time;durP1;ratioP1;P1;durP2;ratioP2;P2;SDS_P1;SDS_P2;PMS_P1;PMS_P2;Temp;Humidity;BMP_temperature;BMP_pressure;BME280_temperature;BME280_humidity;BME280_pressure;Samples;Min_cycle;Max_cycle;Signal;HPM_P1;HPM_P2
2021/01/24 00:00:55;;;;;;;8.40;6.57;;;2.50;99.90;;;;;;5068807;28;20242;-80
2021/01/24 00:03:22;;;;;;;9.83;8.03;;;2.50;99.90;;;;;;5068724;28;20180;-80
2021/01/24 00:05:49;;;;;;;10.30;6.83;;;2.50;99.90;;;;;;5068948;28;20494;-80
2021/01/24 00:08:15;;;;;;;9.97;7.27;;;2.60;99.90;;;;;;5068530;28;20420;-80
2021/01/24 00:10:41;;;;;;;9.67;7.33;;;2.40;99.90;;;;;;5068433;28;20883;-79
2021/01/24 00:13:07;;;;;;;10.30;7.23;;;2.40;99.90;;;;;;5068231;28;20416;-79
2021/01/24 00:15:33;;;;;;;12.00;6.70;;;2.40;99.90;;;;;;5068154;28;20461;-78
2021/01/24 00:17:59;;;;;;;8.23;6.53;;;2.50;99.90;;;;;;5067846;28;20407;-79
2021/01/24 00:20:25;;;;;;;9.03;6.80;;;2.50;99.90;;;;;;5068139;28;20398;-79
2021/01/24 00:22:50;;;;;;;15.83;7.70;;;2.50;99.90;;;;;;5071863;28;20179;-80
2021/01/24 00:25:17;;;;;;;11.50;7.27;;;2.50;99.90;;;;;;5087354;28;20631;-79
2021/01/24 00:27:43;;;;;;;11.37;7.90;;;2.30;99.90;;;;;;5087555;28;20198;-79
2021/01/24 00:30:10;;;;;;;11.77;7.07;;;2.40;99.90;;;;;;5087705;28;20383;-78
2021/01/24 00:32:36;;;;;;;11.17;8.27;;;2.40;99.90;;;;;;5085415;28;20781;-79
2021/01/24 00:35:03;;;;;;;7.50;5.47;;;2.50;99.90;;;;;;5066346;28;20445;-79
2021/01/24 00:37:29;;;;;;;11.23;6.67;;;2.60;99.90;;;;;;5048812;28;20386;-79
2021/01/24 00:39:54;;;;;;;14.67;7.67;;;2.40;99.90;;;;;;5066887;28;20490;-78
2021/01/24 00:42:20;;;;;;;9.57;7.40;;;2.50;99.90;;;;;;5067664;28;20164;-80
2021/01/24 00:44:47;;;;;;;10.23;7.60;;;2.50;99.90;;;;;;5087084;28;20612;-79
2021/01/24 00:47:14;;;;;;;9.97;7.07;;;2.50;99.90;;;;;;5087702;28;20179;-80
2021/01/24 00:49:40;;;;;;;9.57;6.90;;;2.50;99.90;;;;;;5070532;28;20402;-79
2021/01/24 00:52:05;;;;;;;14.90;8.43;;;2.50;99.90;;;;;;5087934;28;20376;-79
2021/01/24 00:54:31;;;;;;;13.30;7.20;;;2.40;99.90;;;;;;5089163;28;20783;-79
2021/01/24 00:56:57;;;;;;;9.40;6.30;;;2.40;99.90;;;;;;5089639;28;20596;-80
2021/01/24 00:59:22;;;;;;;15.00;8.70;;;2.30;99.90;;;;;;5091081;28;20223;-79
2021/01/24 01:01:48;;;;;;;10.40;7.80;;;2.30;99.90;;;;;;5091149;28;20222;-80
2021/01/24 01:04:14;;;;;;;9.93;8.27;;;2.30;99.90;;;;;;5087610;28;20179;-77
2021/01/24 01:06:40;;;;;;;16.70;6.93;;;2.40;99.90;;;;;;5099375;28;20172;-77
2021/01/24 01:09:05;;;;;;;7.50;6.03;;;2.40;99.90;;;;;;5081870;28;20274;-78
2021/01/24 01:11:31;;;;;;;9.40;6.70;;;2.30;99.90;;;;;;5072419;28;20172;-78
2021/01/24 01:13:57;;;;;;;10.70;7.73;;;2.30;99.90;;;;;;5073225;28;20168;-79
2021/01/24 01:16:23;;;;;;;14.00;7.97;;;2.20;99.90;;;;;;5066840;28;20258;-79
2021/01/24 01:18:48;;;;;;;9.77;7.47;;;2.20;99.90;;;;;;5067111;28;20180;-80
2021/01/24 01:21:14;;;;;;;14.53;8.20;;;2.30;99.90;;;;;;5040666;28;20184;-77
2021/01/24 01:23:40;;;;;;;13.73;6.60;;;2.40;99.90;;;;;;5085910;28;20990;-80
2021/01/24 01:26:06;;;;;;;9.47;6.00;;;2.40;99.90;;;;;;5088896;28;20266;-79
2021/01/24 01:28:31;;;;;;;9.93;6.70;;;2.40;99.90;;;;;;5088309;28;20191;-79
2021/01/24 01:30:57;;;;;;;6.73;5.77;;;2.60;99.90;;;;;;5088469;28;20466;-80
2021/01/24 01:33:23;;;;;;;11.47;7.70;;;2.50;99.90;;;;;;5063405;28;20195;-79
2021/01/24 01:35:49;;;;;;;10.67;6.93;;;2.40;99.90;;;;;;5064323;28;20160;-79
2021/01/24 01:38:15;;;;;;;7.90;6.93;;;2.40;99.90;;;;;;5064408;28;20268;-78
2021/01/24 01:40:40;;;;;;;9.73;6.80;;;2.40;99.90;;;;;;5045459;28;20172;-79
2021/01/24 01:43:06;;;;;;;8.90;5.90;;;2.40;99.90;;;;;;5068221;28;20445;-80
2021/01/24 01:45:32;;;;;;;8.00;6.03;;;2.60;99.90;;;;;;5085496;28;20212;-80
2021/01/24 01:47:58;;;;;;;8.20;5.80;;;2.70;99.90;;;;;;5086625;28;20194;-78
2021/01/24 01:50:24;;;;;;;13.07;8.17;;;2.60;99.90;;;;;;5086102;28;20192;-79
2021/01/24 01:52:50;;;;;;;11.57;6.83;;;2.70;99.90;;;;;;5084824;28;20455;-79
2021/01/24 01:55:15;;;;;;;8.63;6.20;;;2.70;99.90;;;;;;5066179;28;20383;-79
2021/01/24 01:57:42;;;;;;;8.10;6.60;;;2.50;99.90;;;;;;5065728;28;20194;-79
2021/01/24 02:00:09;;;;;;;9.40;6.43;;;2.60;99.90;;;;;;5065787;28;20168;-79
2021/01/24 02:03:08;;;;;;;7.90;7.03;;;2.80;99.90;;;;;;5065827;28;20388;-80
2021/01/24 02:05:49;;;;;;;8.97;6.50;;;2.80;99.90;;;;;;5065882;28;20388;-79
2021/01/24 02:08:34;;;;;;;12.60;6.80;;;2.80;99.90;;;;;;5065865;28;20469;-79
2021/01/24 02:11:12;;;;;;;6.30;5.70;;;2.90;99.90;;;;;;5065692;28;20370;-79
2021/01/24 02:14:10;;;;;;;13.37;9.00;;;2.80;99.90;;;;;;5077295;28;20395;-78
2021/01/24 02:16:39;;;;;;;16.07;7.60;;;2.80;99.90;;;;;;5077465;28;20405;-79
2021/01/24 02:19:09;;;;;;;10.80;6.87;;;2.80;99.90;;;;;;5090518;28;20407;-80
2021/01/24 02:21:39;;;;;;;10.97;6.33;;;2.70;99.90;;;;;;5088040;28;20375;-80
2021/01/24 02:24:09;;;;;;;7.87;6.70;;;2.70;99.90;;;;;;5069504;28;20902;-81
2021/01/24 02:27:05;;;;;;;7.77;7.00;;;2.70;99.90;;;;;;5088182;28;20984;-79
2021/01/24 02:29:58;;;;;;;7.80;5.60;;;2.80;99.90;;;;;;5085333;28;20416;-81
2021/01/24 02:32:26;;;;;;;13.93;6.70;;;2.90;99.90;;;;;;5084697;28;20400;-80
2021/01/24 02:34:56;;;;;;;10.53;6.43;;;2.80;99.90;;;;;;5085159;28;20422;-80
2021/01/24 02:37:23;;;;;;;11.53;7.40;;;2.70;99.90;;;;;;5081621;28;20405;-78
2021/01/24 02:39:50;;;;;;;11.63;6.73;;;2.60;99.90;;;;;;5061071;28;20401;-78
2021/01/24 02:42:19;;;;;;;11.57;6.83;;;2.80;99.90;;;;;;5079633;28;20372;-78
2021/01/24 02:44:48;;;;;;;9.53;6.27;;;2.70;99.90;;;;;;5029662;28;20422;-78
2021/01/24 02:47:15;;;;;;;8.83;7.93;;;2.80;99.90;;;;;;5060061;28;20433;-79
2021/01/24 02:49:44;;;;;;;9.67;6.77;;;2.70;99.90;;;;;;5059823;28;20437;-79
2021/01/24 02:52:12;;;;;;;13.27;7.17;;;2.70;99.90;;;;;;5059859;28;20398;-78
2021/01/24 02:54:39;;;;;;;8.70;6.93;;;2.60;99.90;;;;;;5073484;28;20434;-79
2021/01/24 02:57:06;;;;;;;8.47;7.53;;;2.60;99.90;;;;;;5080129;28;20421;-78
2021/01/24 02:59:35;;;;;;;17.13;8.73;;;2.60;99.90;;;;;;5081523;28;20373;-80
2021/01/24 03:02:01;;;;;;;7.23;6.50;;;2.50;99.90;;;;;;5086521;28;20438;-81
2021/01/24 03:04:27;;;;;;;6.70;5.90;;;2.40;99.90;;;;;;5078558;28;20388;-80
2021/01/24 03:06:53;;;;;;;11.60;8.93;;;2.40;99.90;;;;;;5086591;28;20243;-80
2021/01/24 03:09:19;;;;;;;10.00;6.77;;;2.50;99.90;;;;;;5089691;28;20437;-80
2021/01/24 03:11:48;;;;;;;9.23;6.03;;;2.40;99.90;;;;;;5091234;28;20373;-80
2021/01/24 03:14:19;;;;;;;11.60;8.27;;;2.40;99.90;;;;;;5090781;28;20422;-81
2021/01/24 03:16:48;;;;;;;11.07;6.00;;;2.30;99.90;;;;;;5088462;28;20407;-80
2021/01/24 03:19:18;;;;;;;11.57;7.03;;;2.20;99.90;;;;;;5087834;28;20376;-79
2021/01/24 03:21:45;;;;;;;7.67;6.87;;;2.30;99.90;;;;;;5088442;28;20394;-79
2021/01/24 03:24:14;;;;;;;6.53;5.90;;;2.20;99.90;;;;;;5085165;28;20384;-79
2021/01/24 03:26:41;;;;;;;10.27;6.93;;;2.20;99.90;;;;;;5085226;28;20391;-78
2021/01/24 03:29:07;;;;;;;13.00;7.50;;;2.30;99.90;;;;;;5084601;28;20445;-80
2021/01/24 03:31:33;;;;;;;8.80;7.73;;;2.30;99.90;;;;;;5085989;28;20394;-79
2021/01/24 03:34:01;;;;;;;10.57;6.90;;;2.20;99.90;;;;;;5084027;28;20437;-80
2021/01/24 03:36:26;;;;;;;13.77;8.40;;;2.30;99.90;;;;;;5085234;28;20187;-79
2021/01/24 03:38:52;;;;;;;12.17;7.60;;;2.30;99.90;;;;;;5085020;28;20401;-79
2021/01/24 03:41:18;;;;;;;8.20;7.40;;;2.20;99.90;;;;;;5049532;28;20187;-80
2021/01/24 03:43:44;;;;;;;13.17;7.40;;;2.10;99.90;;;;;;5085782;28;20176;-81
2021/01/24 03:46:09;;;;;;;12.47;7.67;;;2.20;99.90;;;;;;5087456;28;20205;-80
2021/01/24 03:48:35;;;;;;;8.00;7.10;;;2.20;99.90;;;;;;5088388;28;20195;-80
2021/01/24 03:51:01;;;;;;;10.47;7.70;;;2.20;99.90;;;;;;5087770;28;20162;-80
2021/01/24 03:53:26;;;;;;;7.70;6.80;;;2.20;99.90;;;;;;5081859;28;20190;-78
2021/01/24 03:55:52;;;;;;;7.47;6.87;;;2.10;99.90;;;;;;5062544;28;20248;-80
2021/01/24 03:58:18;;;;;;;11.63;7.40;;;2.20;99.90;;;;;;5062748;28;20171;-79
2021/01/24 04:00:44;;;;;;;14.33;6.60;;;2.30;99.90;;;;;;5062518;28;20287;-80
2021/01/24 04:03:09;;;;;;;17.10;8.57;;;2.20;99.90;;;;;;5062234;28;20624;-78
2021/01/24 04:05:35;;;;;;;9.00;6.73;;;2.10;99.90;;;;;;5061946;28;20639;-79
2021/01/24 04:08:01;;;;;;;16.03;9.73;;;2.10;99.90;;;;;;5061756;28;20192;-79
2021/01/24 04:10:27;;;;;;;15.37;8.53;;;2.00;99.90;;;;;;5061523;28;20160;-79
2021/01/24 04:12:52;;;;;;;9.90;8.73;;;2.00;99.90;;;;;;5062630;28;20213;-79
2021/01/24 04:15:18;;;;;;;9.07;6.57;;;2.00;99.90;;;;;;5078376;28;20171;-78
2021/01/24 04:17:45;;;;;;;15.73;8.03;;;2.20;99.90;;;;;;5081721;28;20633;-79
2021/01/24 04:20:11;;;;;;;14.67;9.77;;;2.30;99.90;;;;;;5081377;28;20174;-78
2021/01/24 04:22:37;;;;;;;11.17;7.67;;;2.30;99.90;;;;;;5082670;28;20402;-78
2021/01/24 04:25:04;;;;;;;12.07;9.03;;;2.40;99.90;;;;;;5087671;28;20426;-80
2021/01/24 04:27:30;;;;;;;13.60;8.63;;;2.50;99.90;;;;;;5087840;28;20179;-81
2021/01/24 04:29:56;;;;;;;8.70;6.93;;;2.60;99.90;;;;;;5098286;28;20410;-79
2021/01/24 04:32:22;;;;;;;8.60;7.80;;;2.70;99.90;;;;;;5096946;28;20222;-81
2021/01/24 04:34:47;;;;;;;12.43;7.03;;;2.70;99.90;;;;;;5077665;28;20414;-81
2021/01/24 04:37:13;;;;;;;12.23;8.63;;;2.70;99.90;;;;;;5069441;28;20156;-81
2021/01/24 04:39:39;;;;;;;13.80;9.50;;;2.80;99.90;;;;;;5068816;28;20174;-80
2021/01/24 04:42:07;;;;;;;8.23;6.63;;;2.70;99.90;;;;;;5068498;28;20168;-81
2021/01/24 04:44:34;;;;;;;11.20;7.63;;;2.60;99.90;;;;;;5067811;28;20172;-79
2021/01/24 04:47:01;;;;;;;12.67;7.57;;;2.60;99.90;;;;;;5065883;28;20580;-80
2021/01/24 04:49:30;;;;;;;12.80;7.77;;;2.60;99.90;;;;;;5067898;28;20492;-79
2021/01/24 04:51:57;;;;;;;13.80;8.60;;;2.60;99.90;;;;;;5068578;28;20407;-80
2021/01/24 04:54:23;;;;;;;9.63;8.63;;;2.60;99.90;;;;;;5067837;28;20400;-81
2021/01/24 04:56:50;;;;;;;11.67;6.93;;;2.50;99.90;;;;;;5068530;28;20804;-80
2021/01/24 04:59:16;;;;;;;10.97;7.50;;;2.40;99.90;;;;;;5068521;28;20399;-81
2021/01/24 05:01:43;;;;;;;14.00;7.43;;;2.50;99.90;;;;;;5067929;28;20465;-80
2021/01/24 05:04:09;;;;;;;11.27;7.80;;;2.40;99.90;;;;;;5073506;28;20448;-80
2021/01/24 05:06:35;;;;;;;15.93;9.67;;;2.50;99.90;;;;;;5085886;28;20418;-81
2021/01/24 05:09:01;;;;;;;13.53;10.63;;;2.60;99.90;;;;;;5088854;28;20202;-81
2021/01/24 05:11:27;;;;;;;15.30;9.90;;;2.40;99.90;;;;;;5089131;28;20543;-79
2021/01/24 05:13:53;;;;;;;9.43;7.93;;;2.40;99.90;;;;;;5095473;28;20426;-78
2021/01/24 05:16:21;;;;;;;11.57;8.07;;;2.70;99.90;;;;;;5079295;28;20406;-78
2021/01/24 05:18:56;;;;;;;13.87;7.37;;;2.50;99.90;;;;;;5079025;28;20391;-78
2021/01/24 05:21:25;;;;;;;8.47;6.90;;;2.60;99.90;;;;;;5068438;28;20536;-80
2021/01/24 05:23:51;;;;;;;12.17;9.47;;;2.60;99.90;;;;;;5063643;28;20400;-78
2021/01/24 05:26:20;;;;;;;10.83;7.20;;;2.60;99.90;;;;;;5082763;28;20402;-80
2021/01/24 05:28:47;;;;;;;8.17;7.27;;;2.40;99.90;;;;;;5083198;28;20199;-79
2021/01/24 05:31:14;;;;;;;14.47;9.27;;;2.40;99.90;;;;;;5082092;28;20398;-80
2021/01/24 05:33:46;;;;;;;11.93;8.60;;;2.50;99.90;;;;;;5083292;28;20913;-79
2021/01/24 05:36:12;;;;;;;9.70;5.47;;;2.60;99.90;;;;;;5083690;28;20397;-81
2021/01/24 05:38:38;;;;;;;7.97;6.93;;;2.50;99.90;;;;;;5083856;28;20394;-78
2021/01/24 05:41:11;;;;;;;6.07;5.30;;;2.50;99.90;;;;;;5081088;28;20477;-80
2021/01/24 05:43:43;;;;;;;6.90;4.03;;;2.40;99.90;;;;;;5081267;28;20223;-79
2021/01/24 05:46:10;;;;;;;6.23;4.23;;;2.50;99.90;;;;;;5061358;28;20396;-80
2021/01/24 05:48:47;;;;;;;4.57;3.60;;;2.50;99.90;;;;;;5060871;28;20455;-80
2021/01/24 05:51:15;;;;;;;3.17;2.87;;;2.60;99.90;;;;;;5061445;28;20480;-79
2021/01/24 05:53:45;;;;;;;5.03;2.93;;;2.60;99.90;;;;;;5060868;28;20386;-79
2021/01/24 05:56:15;;;;;;;2.60;2.07;;;2.80;99.90;;;;;;5061103;28;20508;-80
2021/01/24 05:58:41;;;;;;;2.13;2.03;;;3.00;99.90;;;;;;5063327;28;20391;-80
2021/01/24 06:01:08;;;;;;;1.80;1.70;;;2.90;99.90;;;;;;5063445;28;20429;-79
2021/01/24 06:03:36;;;;;;;1.50;1.40;;;2.70;99.90;;;;;;5061497;28;20160;-78
2021/01/24 06:06:03;;;;;;;2.03;1.90;;;2.60;99.90;;;;;;5080647;28;20433;-78
2021/01/24 06:08:29;;;;;;;1.50;1.40;;;2.80;99.90;;;;;;5081450;28;20448;-80
2021/01/24 06:10:57;;;;;;;2.03;1.83;;;2.90;99.90;;;;;;5080955;28;20394;-79
2021/01/24 06:13:25;;;;;;;1.20;1.10;;;3.10;99.90;;;;;;5080773;28;20364;-80
2021/01/24 06:15:53;;;;;;;1.53;1.43;;;2.90;99.90;;;;;;5063983;28;20398;-78
2021/01/24 06:18:27;;;;;;;1.20;1.10;;;3.10;99.90;;;;;;5061545;28;20403;-78
2021/01/24 06:20:57;;;;;;;1.00;1.00;;;3.00;99.90;;;;;;5061867;28;20481;-79
2021/01/24 06:23:34;;;;;;;1.73;1.20;;;3.00;99.90;;;;;;5061762;28;20438;-79
2021/01/24 06:26:13;;;;;;;1.40;1.30;;;2.90;99.90;;;;;;5079224;28;20413;-80
2021/01/24 06:28:43;;;;;;;0.93;0.93;;;3.00;99.90;;;;;;5081501;28;20433;-80
2021/01/24 06:31:14;;;;;;;1.37;1.27;;;3.00;99.90;;;;;;5081656;28;20401;-78
2021/01/24 06:33:44;;;;;;;1.20;1.10;;;2.90;99.90;;;;;;5081565;28;20425;-79
2021/01/24 06:36:10;;;;;;;0.90;0.90;;;3.00;99.90;;;;;;5062243;28;20413;-78
2021/01/24 06:38:39;;;;;;;1.00;1.00;;;3.10;99.90;;;;;;5060721;28;20412;-79
2021/01/24 06:41:07;;;;;;;1.53;1.43;;;3.00;99.90;;;;;;5063030;28;20379;-79
2021/01/24 06:43:42;;;;;;;0.90;0.90;;;3.00;99.90;;;;;;5064509;28;20405;-81
2021/01/24 06:46:23;;;;;;;1.03;1.03;;;2.80;99.90;;;;;;5083349;28;20525;-81
2021/01/24 06:48:50;;;;;;;1.20;1.10;;;2.70;99.90;;;;;;5084199;28;20441;-80
2021/01/24 06:51:35;;;;;;;0.97;0.97;;;2.80;99.90;;;;;;5081439;28;20398;-80
2021/01/24 06:54:05;;;;;;;1.37;1.27;;;2.80;99.90;;;;;;5084481;28;20405;-79
2021/01/24 06:56:44;;;;;;;2.47;1.73;;;3.00;99.90;;;;;;5029829;28;20383;-79
2021/01/24 06:59:11;;;;;;;2.07;1.50;;;2.90;99.90;;;;;;5080582;28;20397;-79
2021/01/24 07:01:38;;;;;;;1.10;1.00;;;2.60;99.90;;;;;;5080485;28;20438;-79
2021/01/24 07:04:30;;;;;;;1.10;1.00;;;2.60;99.90;;;;;;5079701;28;20401;-80
2021/01/24 07:06:58;;;;;;;1.20;1.10;;;2.50;99.90;;;;;;5063041;28;20378;-78
2021/01/24 07:09:40;;;;;;;1.67;1.27;;;2.60;99.90;;;;;;5060210;28;20446;-80
2021/01/24 07:12:07;;;;;;;1.30;1.20;;;2.60;99.90;;;;;;5061196;28;20399;-80
2021/01/24 07:14:48;;;;;;;0.90;0.90;;;2.30;99.90;;;;;;5065532;28;20406;-80
2021/01/24 07:17:17;;;;;;;1.50;1.40;;;2.20;99.90;;;;;;5080601;28;20411;-78
2021/01/24 07:19:47;;;;;;;1.10;1.00;;;2.30;99.90;;;;;;5081607;28;20401;-80
2021/01/24 07:22:14;;;;;;;2.00;1.83;;;2.20;99.90;;;;;;5080431;28;20378;-78
2021/01/24 07:24:41;;;;;;;2.00;1.90;;;2.50;99.90;;;;;;5076268;28;20406;-80
2021/01/24 07:27:08;;;;;;;1.60;1.50;;;2.40;99.90;;;;;;5062548;28;20469;-80
2021/01/24 07:29:35;;;;;;;1.40;1.30;;;2.40;99.90;;;;;;5064171;28;20417;-80
2021/01/24 07:32:09;;;;;;;1.47;1.37;;;2.30;99.90;;;;;;5064095;28;20394;-80
2021/01/24 07:34:36;;;;;;;1.43;1.33;;;2.00;99.90;;;;;;5064749;28;20448;-80
2021/01/24 07:37:06;;;;;;;2.40;2.10;;;2.10;99.90;;;;;;5067166;28;20401;-80
2021/01/24 07:39:32;;;;;;;1.63;1.53;;;2.00;99.90;;;;;;5077341;28;20376;-80
2021/01/24 07:42:01;;;;;;;3.10;2.13;;;1.90;99.90;;;;;;5070398;28;20410;-81
2021/01/24 07:44:41;;;;;;;2.57;2.37;;;2.00;99.90;;;;;;5106519;27;20531;-81
2021/01/24 07:47:08;;;;;;;2.57;2.13;;;2.00;99.90;;;;;;5105147;28;20401;-80
2021/01/24 07:49:34;;;;;;;5.20;4.80;;;2.00;99.90;;;;;;5104935;28;20408;-80
2021/01/24 07:52:03;;;;;;;2.33;1.93;;;2.00;99.90;;;;;;5104708;28;20376;-80
2021/01/24 07:54:29;;;;;;;7.90;2.27;;;2.10;99.90;;;;;;5104370;28;20364;-79
2021/01/24 07:56:54;;;;;;;2.40;2.20;;;1.90;99.90;;;;;;5103572;28;20397;-79
2021/01/24 07:59:20;;;;;;;2.37;2.27;;;2.00;99.90;;;;;;5102991;28;20660;-79
2021/01/24 08:01:46;;;;;;;2.17;1.90;;;1.80;99.90;;;;;;5103189;28;20159;-79
2021/01/24 08:04:12;;;;;;;5.37;2.40;;;1.80;99.90;;;;;;5104546;28;20438;-80
2021/01/24 08:06:39;;;;;;;2.20;2.00;;;1.90;99.90;;;;;;5103671;28;20417;-80
2021/01/24 08:09:08;;;;;;;3.80;2.37;;;2.00;99.90;;;;;;5103965;28;20338;-81
2021/01/24 08:11:35;;;;;;;3.70;2.87;;;2.10;99.90;;;;;;5105167;28;20423;-80
2021/01/24 08:14:03;;;;;;;6.73;3.23;;;2.00;99.90;;;;;;5104770;28;20397;-81
2021/01/24 08:16:49;;;;;;;2.30;2.10;;;1.80;99.90;;;;;;5108561;28;20391;-81
2021/01/24 08:19:17;;;;;;;2.73;2.53;;;1.80;99.90;;;;;;5114006;28;20439;-80
2021/01/24 08:21:44;;;;;;;1.93;1.83;;;1.90;99.90;;;;;;5113763;28;20401;-80
2021/01/24 08:24:10;;;;;;;4.80;2.40;;;1.80;99.90;;;;;;5102868;28;20449;-81
2021/01/24 08:26:38;;;;;;;2.00;1.90;;;1.70;99.90;;;;;;5102308;28;20401;-81
2021/01/24 08:29:04;;;;;;;2.83;2.63;;;1.90;99.90;;;;;;5102487;28;20923;-81
2021/01/24 08:31:31;;;;;;;1.80;1.70;;;1.90;99.90;;;;;;5102306;28;20515;-80
2021/01/24 08:33:57;;;;;;;2.97;2.77;;;1.90;99.90;;;;;;5103813;28;20454;-80
2021/01/24 08:36:26;;;;;;;3.93;3.57;;;2.10;99.90;;;;;;5103509;28;20448;-81
2021/01/24 08:38:58;;;;;;;4.90;3.60;;;2.30;99.90;;;;;;5102920;28;20170;-80
2021/01/24 08:41:33;;;;;;;2.17;2.07;;;2.00;99.90;;;;;;5103393;28;20364;-80
2021/01/24 08:44:10;;;;;;;5.63;3.13;;;1.70;99.90;;;;;;5103570;28;20885;-80
2021/01/24 08:46:47;;;;;;;4.17;3.20;;;1.90;99.90;;;;;;5103886;28;20438;-80
2021/01/24 08:49:22;;;;;;;3.90;3.30;;;2.00;99.90;;;;;;5104060;28;20404;-80
2021/01/24 08:51:52;;;;;;;3.50;3.13;;;1.80;99.90;;;;;;5103911;28;20443;-80
2021/01/24 08:54:28;;;;;;;3.50;1.87;;;2.00;99.90;;;;;;5100025;28;20539;-80
2021/01/24 08:57:16;;;;;;;2.67;2.40;;;1.70;99.90;;;;;;5069877;28;20430;-81
2021/01/24 08:59:59;;;;;;;2.70;2.50;;;1.80;99.90;;;;;;5069210;28;20401;-80
2021/01/24 09:02:41;;;;;;;2.17;1.93;;;1.50;99.90;;;;;;5069092;28;20411;-81
2021/01/24 09:05:10;;;;;;;3.87;2.80;;;1.30;99.90;;;;;;5074360;28;20388;-80
2021/01/24 09:07:44;;;;;;;2.93;2.50;;;1.60;99.90;;;;;;5089126;28;20424;-80
2021/01/24 09:10:24;;;;;;;3.13;2.07;;;1.50;99.90;;;;;;5090147;28;20438;-81
2021/01/24 09:12:52;;;;;;;3.33;2.77;;;1.50;99.90;;;;;;5090606;28;20406;-81
2021/01/24 09:15:19;;;;;;;3.00;2.80;;;1.70;99.90;;;;;;5089933;28;20399;-81
2021/01/24 09:17:47;;;;;;;2.60;1.80;;;1.50;99.90;;;;;;5089308;28;20398;-80
2021/01/24 09:20:13;;;;;;;1.57;1.47;;;1.50;99.90;;;;;;5090453;28;20403;-80
2021/01/24 09:22:39;;;;;;;2.60;2.30;;;1.50;99.90;;;;;;5099411;28;20544;-78
2021/01/24 09:25:05;;;;;;;3.80;2.77;;;1.60;99.90;;;;;;5099443;28;20455;-79
2021/01/24 09:27:31;;;;;;;2.60;2.40;;;1.80;99.90;;;;;;5100470;28;20179;-78
2021/01/24 09:29:57;;;;;;;3.87;2.30;;;1.90;99.90;;;;;;5100246;28;20386;-78
2021/01/24 09:32:24;;;;;;;1.73;1.63;;;2.10;99.90;;;;;;5099584;28;20168;-81
2021/01/24 09:34:50;;;;;;;2.43;2.33;;;2.00;99.90;;;;;;5100168;28;20194;-78
2021/01/24 09:37:16;;;;;;;2.63;2.30;;;2.00;99.90;;;;;;5100276;28;20402;-78
2021/01/24 09:39:42;;;;;;;3.37;2.90;;;2.10;99.90;;;;;;5100261;28;20183;-79
2021/01/24 09:42:08;;;;;;;2.83;2.20;;;2.30;99.90;;;;;;5100383;28;20205;-79
2021/01/24 09:44:34;;;;;;;2.90;2.60;;;2.10;99.90;;;;;;5098841;28;20448;-80
2021/01/24 09:47:00;;;;;;;2.77;2.53;;;2.00;99.90;;;;;;5098579;28;20450;-79
2021/01/24 09:49:26;;;;;;;2.57;2.37;;;1.70;99.90;;;;;;5089607;28;20189;-80
2021/01/24 09:51:52;;;;;;;2.80;2.60;;;1.90;99.90;;;;;;5087501;28;20444;-80
2021/01/24 09:54:18;;;;;;;3.53;2.77;;;2.00;99.90;;;;;;5086615;28;20398;-80
2021/01/24 09:56:44;;;;;;;3.20;2.57;;;2.00;99.90;;;;;;5085769;28;20168;-81
2021/01/24 09:59:11;;;;;;;3.23;2.20;;;2.00;99.90;;;;;;5084777;28;20211;-79
2021/01/24 10:01:38;;;;;;;3.73;3.30;;;1.90;99.90;;;;;;5084865;28;20462;-81
2021/01/24 10:04:04;;;;;;;3.70;2.20;;;1.80;99.90;;;;;;5085185;28;20423;-80
2021/01/24 10:06:29;;;;;;;3.17;2.63;;;1.70;99.90;;;;;;5084689;28;20432;-81
2021/01/24 10:08:55;;;;;;;3.47;2.90;;;1.80;99.90;;;;;;5086584;28;20368;-81
2021/01/24 10:11:21;;;;;;;3.63;2.50;;;1.80;99.90;;;;;;5086690;28;20529;-81
2021/01/24 10:13:48;;;;;;;3.73;3.37;;;1.70;99.90;;;;;;5086269;28;20862;-80
2021/01/24 10:16:14;;;;;;;2.57;2.37;;;1.80;99.90;;;;;;5085481;28;20425;-81
2021/01/24 10:18:40;;;;;;;3.00;2.80;;;1.90;99.90;;;;;;5085860;28;20432;-80
2021/01/24 10:21:08;;;;;;;5.27;4.77;;;1.80;99.90;;;;;;5086712;28;20383;-80
2021/01/24 10:23:34;;;;;;;2.67;2.40;;;1.80;99.90;;;;;;5086708;28;20424;-80
2021/01/24 10:26:00;;;;;;;5.00;3.57;;;1.90;99.90;;;;;;5085265;28;20437;-80
2021/01/24 10:28:26;;;;;;;13.70;3.03;;;2.00;99.90;;;;;;5086662;28;20418;-80
2021/01/24 10:30:53;;;;;;;2.90;2.40;;;1.70;99.90;;;;;;5085930;28;20483;-80
2021/01/24 10:33:20;;;;;;;2.07;1.97;;;1.70;99.90;;;;;;5084164;28;20437;-80
2021/01/24 10:35:46;;;;;;;4.70;4.00;;;1.60;99.90;;;;;;5086339;28;20406;-79
2021/01/24 10:38:13;;;;;;;8.63;3.57;;;1.50;99.90;;;;;;5084799;28;20369;-78
2021/01/24 10:40:39;;;;;;;6.60;3.17;;;1.80;99.90;;;;;;5084636;28;20550;-80
2021/01/24 10:43:06;;;;;;;3.60;2.87;;;2.20;99.90;;;;;;5083510;28;20580;-80
2021/01/24 10:45:34;;;;;;;3.00;2.03;;;2.30;99.90;;;;;;5086414;28;20202;-80
2021/01/24 10:48:01;;;;;;;2.57;2.37;;;2.30;99.90;;;;;;5098185;28;20379;-79
2021/01/24 10:50:28;;;;;;;2.83;2.60;;;2.20;99.90;;;;;;5092779;28;20452;-80
2021/01/24 10:52:54;;;;;;;3.57;3.00;;;1.80;99.90;;;;;;5087592;28;20409;-79
2021/01/24 10:55:21;;;;;;;3.03;2.27;;;2.00;99.90;;;;;;5086547;28;20399;-79
2021/01/24 10:57:47;;;;;;;3.30;2.90;;;2.00;99.90;;;;;;5086762;28;20487;-80
2021/01/24 11:00:13;;;;;;;6.20;2.33;;;2.20;99.90;;;;;;5086300;28;20396;-81
2021/01/24 11:02:39;;;;;;;2.57;2.30;;;2.00;99.90;;;;;;5085433;28;20472;-79
2021/01/24 11:05:06;;;;;;;3.90;3.60;;;1.90;99.90;;;;;;5086791;28;20377;-79
2021/01/24 11:07:32;;;;;;;2.80;1.90;;;2.00;99.90;;;;;;5088022;28;20388;-80
2021/01/24 11:09:58;;;;;;;2.70;2.30;;;1.70;99.90;;;;;;5086006;28;20422;-80
2021/01/24 11:12:24;;;;;;;3.20;3.00;;;1.90;99.90;;;;;;5087470;28;20171;-80
2021/01/24 11:14:50;;;;;;;3.53;2.70;;;2.00;99.90;;;;;;5087924;28;20518;-80
2021/01/24 11:17:17;;;;;;;2.40;2.20;;;2.00;99.90;;;;;;5091922;28;20155;-78
2021/01/24 11:19:44;;;;;;;5.70;2.80;;;1.80;99.90;;;;;;5098206;28;20365;-78
2021/01/24 11:22:10;;;;;;;2.53;2.40;;;2.00;99.90;;;;;;5098253;28;20432;-77
2021/01/24 11:24:36;;;;;;;3.60;2.50;;;1.70;99.90;;;;;;5098232;28;20461;-78
2021/01/24 11:27:05;;;;;;;3.77;3.07;;;1.90;99.90;;;;;;5087373;28;20404;-80
2021/01/24 11:29:32;;;;;;;3.13;2.10;;;2.20;99.90;;;;;;5085133;28;20156;-79
2021/01/24 11:31:58;;;;;;;5.73;3.40;;;2.30;99.90;;;;;;5085102;28;20396;-80
2021/01/24 11:34:24;;;;;;;2.63;2.43;;;2.10;99.90;;;;;;5084243;28;20791;-79
2021/01/24 11:36:49;;;;;;;3.83;2.17;;;2.10;99.90;;;;;;5083728;28;20413;-79
2021/01/24 11:39:15;;;;;;;3.83;3.23;;;2.10;99.90;;;;;;5083324;28;20179;-79
2021/01/24 11:41:41;;;;;;;2.60;2.20;;;2.20;99.90;;;;;;5083696;28;20634;-79
2021/01/24 11:44:07;;;;;;;3.00;2.10;;;1.90;99.90;;;;;;5081766;28;20242;-80
2021/01/24 11:46:33;;;;;;;2.60;2.40;;;2.20;99.90;;;;;;5082710;28;20414;-80
2021/01/24 11:48:59;;;;;;;2.97;2.67;;;2.40;99.90;;;;;;5081776;28;20179;-79
2021/01/24 11:51:25;;;;;;;1.73;1.63;;;2.20;99.90;;;;;;5082143;28;20160;-78
2021/01/24 11:53:51;;;;;;;2.17;1.97;;;2.10;99.90;;;;;;5083175;28;20717;-79
2021/01/24 11:56:16;;;;;;;2.37;1.60;;;2.30;99.90;;;;;;5083301;28;20174;-78
2021/01/24 11:58:42;;;;;;;1.93;1.53;;;2.00;99.90;;;;;;5083995;28;20171;-79
2021/01/24 12:01:08;;;;;;;3.10;2.33;;;1.90;99.90;;;;;;5084133;28;20171;-80
2021/01/24 12:03:34;;;;;;;4.20;2.33;;;2.00;99.90;;;;;;5083588;28;20254;-79
2021/01/24 12:05:59;;;;;;;2.20;2.00;;;2.20;99.90;;;;;;5082055;28;20168;-81
2021/01/24 12:08:25;;;;;;;1.70;1.60;;;2.20;99.90;;;;;;5084342;28;20160;-79
2021/01/24 12:10:51;;;;;;;2.60;1.93;;;2.30;99.90;;;;;;5085477;28;20159;-80
2021/01/24 12:13:17;;;;;;;2.13;1.93;;;2.20;99.90;;;;;;5083170;28;20203;-81
2021/01/24 12:15:42;;;;;;;9.30;2.10;;;2.30;99.90;;;;;;5065735;28;20191;-82
2021/01/24 12:18:08;;;;;;;3.00;1.67;;;2.20;99.90;;;;;;5082961;28;20248;-81
2021/01/24 12:20:34;;;;;;;2.27;2.07;;;2.40;99.90;;;;;;5084191;28;20171;-81
2021/01/24 12:23:00;;;;;;;4.80;2.67;;;2.30;99.90;;;;;;5083366;28;20428;-80
2021/01/24 12:25:26;;;;;;;4.60;1.90;;;2.30;99.90;;;;;;5082886;28;20190;-81
2021/01/24 12:27:51;;;;;;;3.30;1.73;;;2.50;99.90;;;;;;5084007;28;20190;-80
2021/01/24 12:30:19;;;;;;;2.10;1.93;;;2.10;99.90;;;;;;5069133;28;20168;-81
2021/01/24 12:32:45;;;;;;;2.90;2.23;;;2.40;99.90;;;;;;5088140;28;20203;-80
2021/01/24 12:35:11;;;;;;;3.00;2.80;;;2.50;99.90;;;;;;5087283;28;20464;-80
2021/01/24 12:37:37;;;;;;;3.73;1.73;;;2.30;99.90;;;;;;5087518;28;20418;-80
2021/01/24 12:40:04;;;;;;;3.67;1.60;;;2.30;99.90;;;;;;5087311;28;20478;-81
2021/01/24 12:42:30;;;;;;;2.97;2.20;;;2.40;99.90;;;;;;5091298;28;20396;-79
2021/01/24 12:44:56;;;;;;;6.70;2.40;;;2.50;99.90;;;;;;5100260;28;20424;-79
2021/01/24 12:47:22;;;;;;;2.07;1.90;;;2.30;99.90;;;;;;5090642;28;20175;-81
2021/01/24 12:49:48;;;;;;;2.67;1.60;;;2.30;99.90;;;;;;5089044;28;20451;-81
2021/01/24 12:52:14;;;;;;;2.80;1.87;;;2.50;99.90;;;;;;5089622;28;20481;-81
2021/01/24 12:54:40;;;;;;;2.53;2.33;;;2.40;99.90;;;;;;5088788;28;20698;-80
2021/01/24 12:57:06;;;;;;;2.37;2.17;;;2.50;99.90;;;;;;5088715;28;20171;-80
2021/01/24 12:59:32;;;;;;;2.00;1.70;;;2.50;99.90;;;;;;5088971;28;20164;-81